Time;durP1;ratioP1;P1;durP2;ratioP2;P2;SDS_P1;SDS_P2;PMS_P1;PMS_P2;Temp;Humidity;BMP_temperature;BMP_pressure;BME280_temperature;BME280_humidity;BME280_pressure;Samples;Min_cycle;Max_cycle;Signal;HPM_P1;HPM_P2
2023/07/22 00:00:26;;;;;;;3.47;1.73;;;20.30;82.60;;;;;;4992135;28;20108;-79
2023/07/22 00:02:52;;;;;;;2.50;1.60;;;20.30;82.60;;;;;;4992224;28;20018;-81
2023/07/22 00:05:23;;;;;;;2.97;1.65;;;20.30;83.20;;;;;;4991807;28;20443;-82
2023/07/22 00:07:49;;;;;;;3.08;1.83;;;20.30;82.60;;;;;;4991839;28;20022;-82
2023/07/22 00:10:14;;;;;;;3.42;1.80;;;20.30;82.70;;;;;;4993528;28;20045;-81
2023/07/22 00:12:40;;;;;;;2.97;1.70;;;20.30;82.60;;;;;;4993112;28;20034;-81
2023/07/22 00:15:06;;;;;;;3.88;2.05;;;20.30;82.70;;;;;;4991419;28;20029;-81
2023/07/22 00:17:31;;;;;;;3.03;1.77;;;20.30;82.70;;;;;;4993039;28;20381;-81
2023/07/22 00:19:57;;;;;;;2.95;1.77;;;20.30;82.70;;;;;;4992545;28;20089;-81
2023/07/22 00:22:22;;;;;;;3.83;1.90;;;20.20;82.60;;;;;;4991295;28;20019;-82
2023/07/22 00:24:48;;;;;;;3.67;1.85;;;20.20;82.60;;;;;;4992575;28;20078;-81
2023/07/22 00:27:14;;;;;;;4.10;1.90;;;20.30;82.70;;;;;;4992883;28;20046;-82
2023/07/22 00:29:39;;;;;;;3.75;1.85;;;20.20;82.70;;;;;;4992165;28;20026;-81
2023/07/22 00:32:08;;;;;;;3.13;1.65;;;20.20;83.20;;;;;;4990913;28;20034;-81
2023/07/22 00:34:34;;;;;;;3.05;1.85;;;20.20;82.60;;;;;;4991691;28;20033;-81
2023/07/22 00:36:59;;;;;;;3.03;1.90;;;20.20;82.60;;;;;;4990903;28;20026;-81
2023/07/22 00:39:25;;;;;;;2.97;1.80;;;20.20;82.60;;;;;;4990612;28;20026;-81
2023/07/22 00:41:50;;;;;;;3.05;1.75;;;20.20;82.70;;;;;;4990813;28;20106;-81
2023/07/22 00:44:16;;;;;;;3.92;1.80;;;20.20;82.60;;;;;;4991365;28;20038;-80
2023/07/22 00:46:41;;;;;;;2.80;1.50;;;20.30;82.60;;;;;;4991729;28;20034;-81
2023/07/22 00:49:08;;;;;;;2.65;1.60;;;20.30;82.60;;;;;;4989802;28;20026;-79
2023/07/22 00:51:33;;;;;;;2.60;1.65;;;20.30;82.60;;;;;;4990367;28;20042;-81
2023/07/22 00:53:59;;;;;;;3.53;1.83;;;20.30;82.50;;;;;;4989669;28;20750;-81
2023/07/22 00:56:25;;;;;;;2.60;1.50;;;20.30;82.50;;;;;;4992063;28;20062;-81
2023/07/22 00:58:51;;;;;;;2.65;1.80;;;20.30;82.50;;;;;;4990281;28;20023;-81
2023/07/22 01:01:17;;;;;;;3.35;1.80;;;20.30;82.40;;;;;;4989974;28;20117;-81
2023/07/22 01:03:43;;;;;;;3.50;2.28;;;20.30;82.40;;;;;;4989169;28;20095;-81
2023/07/22 01:06:09;;;;;;;4.13;2.00;;;20.40;82.40;;;;;;4989870;28;20053;-81
2023/07/22 01:08:35;;;;;;;2.67;1.75;;;20.30;82.30;;;;;;4989830;28;20568;-81
2023/07/22 01:11:00;;;;;;;3.42;1.92;;;20.40;82.40;;;;;;4989729;28;20122;-81
2023/07/22 01:13:26;;;;;;;4.05;2.22;;;20.40;82.40;;;;;;4990477;28;20035;-81
2023/07/22 01:15:52;;;;;;;3.33;1.90;;;20.30;82.30;;;;;;4989282;28;20117;-80
2023/07/22 01:18:18;;;;;;;3.25;1.80;;;20.30;82.40;;;;;;4989393;28;20712;-80
2023/07/22 01:20:45;;;;;;;4.15;2.38;;;20.30;82.20;;;;;;4989282;28;20030;-81
2023/07/22 01:23:11;;;;;;;4.13;2.30;;;20.30;82.40;;;;;;4989074;28;20027;-81
2023/07/22 01:25:36;;;;;;;3.75;1.80;;;20.30;82.40;;;;;;4989097;28;20030;-81
2023/07/22 01:28:02;;;;;;;2.75;1.60;;;20.30;82.60;;;;;;4989296;28;20030;-80
2023/07/22 01:30:28;;;;;;;4.10;2.00;;;20.20;82.60;;;;;;4988952;28;20030;-81
2023/07/22 01:32:53;;;;;;;3.42;1.85;;;20.20;82.70;;;;;;4989111;28;20022;-81
2023/07/22 01:35:19;;;;;;;3.25;1.75;;;20.20;82.60;;;;;;4988363;28;20053;-80
2023/07/22 01:37:45;;;;;;;3.80;2.20;;;20.20;82.70;;;;;;4990205;28;20030;-81
2023/07/22 01:40:11;;;;;;;4.13;2.08;;;20.20;82.60;;;;;;4989768;28;20033;-81
2023/07/22 01:42:38;;;;;;;3.90;2.10;;;20.20;82.70;;;;;;4988836;28;20027;-81
2023/07/22 01:45:07;;;;;;;3.50;2.00;;;20.20;82.70;;;;;;4988322;28;20066;-80
2023/07/22 01:47:36;;;;;;;4.47;2.22;;;20.20;82.70;;;;;;4988603;28;20076;-80
2023/07/22 01:50:03;;;;;;;4.70;2.20;;;20.20;82.80;;;;;;4990250;28;20734;-81
2023/07/22 01:52:28;;;;;;;3.38;1.92;;;20.20;82.80;;;;;;4988332;28;20030;-80
2023/07/22 01:54:54;;;;;;;3.65;2.20;;;20.20;82.80;;;;;;4988063;28;20023;-81
2023/07/22 01:57:19;;;;;;;4.32;2.25;;;20.20;82.80;;;;;;4988233;28;20440;-80
2023/07/22 01:59:45;;;;;;;3.58;2.00;;;20.20;82.70;;;;;;4989663;28;20041;-80
2023/07/22 02:02:10;;;;;;;4.15;2.28;;;20.20;82.70;;;;;;4987575;28;20033;-80
2023/07/22 02:04:36;;;;;;;3.95;2.20;;;20.20;82.80;;;;;;4987321;28;20026;-80
2023/07/22 02:07:01;;;;;;;3.92;2.10;;;20.20;82.70;;;;;;4987931;28;20399;-80
2023/07/22 02:09:27;;;;;;;4.28;2.10;;;20.20;82.70;;;;;;4988074;28;20033;-80
2023/07/22 02:11:53;;;;;;;3.83;2.17;;;20.20;82.70;;;;;;4989113;28;20034;-81
2023/07/22 02:14:19;;;;;;;3.80;1.95;;;20.10;82.60;;;;;;4988133;28;20684;-80
2023/07/22 02:16:44;;;;;;;3.55;2.00;;;20.20;82.70;;;;;;4987900;28;20089;-79
2023/07/22 02:19:10;;;;;;;3.90;2.10;;;20.20;82.70;;;;;;4987901;28;20127;-80
2023/07/22 02:21:35;;;;;;;3.30;1.92;;;20.20;82.60;;;;;;4987933;28;20117;-81
2023/07/22 02:24:01;;;;;;;4.00;2.22;;;20.20;82.60;;;;;;4988926;28;20026;-80
2023/07/22 02:26:26;;;;;;;3.80;2.20;;;20.20;82.60;;;;;;4988022;28;20030;-80
2023/07/22 02:28:52;;;;;;;4.00;2.15;;;20.20;82.60;;;;;;4987827;28;20027;-80
2023/07/22 02:31:17;;;;;;;3.83;2.08;;;20.20;82.50;;;;;;4987947;28;20543;-80
2023/07/22 02:33:43;;;;;;;3.88;2.05;;;20.30;82.50;;;;;;4987561;28;20065;-80
2023/07/22 02:36:08;;;;;;;3.45;2.08;;;20.30;82.50;;;;;;4987944;28;20085;-80
2023/07/22 02:38:34;;;;;;;3.47;2.00;;;20.30;82.50;;;;;;4987625;28;20057;-81
2023/07/22 02:41:06;;;;;;;3.75;1.90;;;20.30;82.40;;;;;;4988107;28;20022;-80
2023/07/22 02:43:32;;;;;;;3.95;2.25;;;20.30;82.40;;;;;;4987739;28;20049;-80
2023/07/22 02:45:59;;;;;;;4.25;2.50;;;20.30;82.30;;;;;;4986475;28;20547;-81
2023/07/22 02:48:25;;;;;;;3.83;2.28;;;20.30;82.40;;;;;;4989846;28;20034;-84
2023/07/22 02:50:50;;;;;;;4.15;2.53;;;20.30;82.40;;;;;;4993741;28;20125;-86
2023/07/22 02:53:16;;;;;;;4.10;2.25;;;20.30;82.40;;;;;;4993098;28;20030;-84
2023/07/22 02:55:41;;;;;;;5.43;2.40;;;20.30;82.40;;;;;;4992254;28;20030;-82
2023/07/22 02:58:07;;;;;;;4.28;2.45;;;20.20;82.80;;;;;;4991974;28;20026;-84
2023/07/22 03:00:32;;;;;;;4.18;2.45;;;20.20;82.40;;;;;;4991762;28;20421;-82
2023/07/22 03:03:00;;;;;;;4.22;2.42;;;20.20;82.50;;;;;;4990969;28;20169;-85
2023/07/22 03:05:30;;;;;;;3.67;2.03;;;20.20;82.60;;;;;;4990956;28;20503;-83
2023/07/22 03:07:56;;;;;;;3.42;1.90;;;20.20;82.70;;;;;;4991263;28;20027;-85
2023/07/22 03:10:22;;;;;;;3.83;2.20;;;20.20;82.70;;;;;;4991360;28;20579;-83
2023/07/22 03:12:48;;;;;;;4.38;2.40;;;20.10;82.70;;;;;;4994939;28;20023;-85
2023/07/22 03:15:13;;;;;;;4.75;2.60;;;20.10;82.70;;;;;;4995924;28;20076;-83
2023/07/22 03:17:43;;;;;;;4.82;2.40;;;20.10;82.60;;;;;;4996755;28;20030;-82
2023/07/22 03:20:13;;;;;;;4.18;2.30;;;20.10;82.70;;;;;;4995145;28;20354;-84
2023/07/22 03:22:39;;;;;;;4.88;2.50;;;20.10;82.70;;;;;;4995334;28;20081;-83
2023/07/22 03:25:08;;;;;;;4.63;2.70;;;20.10;82.70;;;;;;4994608;28;20027;-83
2023/07/22 03:27:33;;;;;;;4.45;2.30;;;20.10;82.70;;;;;;4994505;28;20421;-82
2023/07/22 03:29:59;;;;;;;4.68;2.60;;;20.10;82.70;;;;;;4994613;28;20125;-82
2023/07/22 03:32:24;;;;;;;4.60;2.53;;;20.10;82.70;;;;;;4994493;28;20026;-82
2023/07/22 03:34:50;;;;;;;4.28;2.33;;;20.10;82.80;;;;;;4994443;28;20034;-82
2023/07/22 03:37:15;;;;;;;4.10;2.38;;;20.10;82.70;;;;;;4994497;28;20030;-84
2023/07/22 03:39:41;;;;;;;3.92;2.22;;;20.10;82.70;;;;;;4993863;28;20390;-84
2023/07/22 03:42:06;;;;;;;4.88;2.40;;;20.10;82.70;;;;;;4993749;28;20060;-85
2023/07/22 03:44:32;;;;;;;4.55;2.22;;;20.10;82.70;;;;;;4993063;28;20038;-82
2023/07/22 03:46:59;;;;;;;4.50;2.20;;;20.10;82.70;;;;;;4993929;28;20030;-84
2023/07/22 03:49:25;;;;;;;5.00;2.67;;;20.10;82.70;;;;;;4994575;28;20611;-81
2023/07/22 03:51:50;;;;;;;3.97;2.20;;;20.10;82.70;;;;;;4993296;28;20137;-82
2023/07/22 03:54:16;;;;;;;4.13;2.20;;;20.10;82.70;;;;;;4992861;28;20044;-83
2023/07/22 03:56:41;;;;;;;5.18;2.40;;;20.10;82.70;;;;;;4993130;28;20507;-83
2023/07/22 03:59:07;;;;;;;4.88;2.80;;;20.10;82.70;;;;;;4994706;28;20023;-84
2023/07/22 04:01:32;;;;;;;5.57;2.50;;;20.10;82.60;;;;;;4995597;28;20073;-84
2023/07/22 04:03:58;;;;;;;3.75;2.22;;;20.10;82.50;;;;;;4993975;28;20054;-82
2023/07/22 04:06:26;;;;;;;4.85;2.58;;;20.20;82.60;;;;;;4993851;28;20034;-83
2023/07/22 04:08:51;;;;;;;4.60;2.60;;;20.10;83.00;;;;;;4996158;28;20023;-83
2023/07/22 04:49:24;;;;;;;4.15;2.47;;;20.10;82.60;;;;;;5261903;22;20056;-82
2023/07/22 04:51:50;;;;;;;4.38;2.42;;;20.10;82.60;;;;;;4995749;28;20026;-83
2023/07/22 04:54:15;;;;;;;4.90;2.78;;;20.10;82.60;;;;;;4982182;28;20019;-82
2023/07/22 04:56:42;;;;;;;4.47;2.55;;;20.10;82.60;;;;;;4957245;28;20401;-84
2023/07/22 04:59:08;;;;;;;5.70;2.75;;;20.10;82.60;;;;;;4993171;28;20037;-82
2023/07/22 05:01:33;;;;;;;4.43;2.60;;;20.10;82.60;;;;;;4975772;28;20031;-84
2023/07/22 05:15:02;;;;;;;4.75;2.50;;;20.10;82.60;;;;;;5029713;28;20083;-85
2023/07/22 05:17:37;;;;;;;4.80;2.60;;;20.10;82.60;;;;;;4933770;29;20106;-88
2023/07/22 05:21:08;;;;;;;;;;;;;;;;;;;;;
2023/07/22 05:28:39;;;;;;;5.43;2.70;;;20.10;82.60;;;;;;5090037;22;20054;-84
2023/07/22 05:31:06;;;;;;;5.88;2.70;;;20.50;82.80;;;;;;4994263;28;20034;-84
2023/07/22 05:33:31;;;;;;;4.75;2.53;;;20.00;82.50;;;;;;4993601;28;20025;-85
2023/07/22 05:35:57;;;;;;;5.10;2.72;;;20.20;82.50;;;;;;4993972;28;20029;-87
2023/07/22 05:38:23;;;;;;;5.10;2.97;;;20.10;82.50;;;;;;4993779;28;20077;-87
2023/07/22 05:40:48;;;;;;;5.13;2.90;;;20.30;82.50;;;;;;4994186;28;20021;-84
2023/07/22 05:43:14;;;;;;;4.95;2.90;;;20.30;82.50;;;;;;4993833;28;20125;-84
2023/07/22 05:45:40;;;;;;;4.60;2.88;;;20.60;82.70;;;;;;5012322;28;20024;-85
2023/07/22 05:48:06;;;;;;;5.65;3.30;;;20.10;82.30;;;;;;5012595;28;20025;-85
2023/07/22 05:50:31;;;;;;;5.55;2.97;;;20.70;82.50;;;;;;4994849;28;20034;-89
2023/07/22 05:52:57;;;;;;;5.57;3.00;;;20.80;82.30;;;;;;5012245;28;20103;-85
2023/07/22 05:55:22;;;;;;;5.20;3.20;;;21.20;82.50;;;;;;4994489;28;20447;-83
2023/07/22 05:57:48;;;;;;;5.75;3.60;;;20.20;82.00;;;;;;4994284;28;20108;-84
2023/07/22 06:00:14;;;;;;;5.28;3.13;;;20.70;82.20;;;;;;5012275;28;20054;-84
2023/07/22 06:02:40;;;;;;;5.40;3.25;;;20.70;82.20;;;;;;5012022;28;20463;-84
2023/07/22 06:05:06;;;;;;;5.53;2.95;;;20.20;81.90;;;;;;4994219;28;20022;-85
2023/07/22 06:07:32;;;;;;;5.10;3.08;;;20.30;81.90;;;;;;4994488;28;20117;-84
2023/07/22 06:09:57;;;;;;;5.15;3.15;;;20.30;81.80;;;;;;4994230;28;20034;-84
2023/07/22 06:12:23;;;;;;;5.15;2.90;;;21.10;82.10;;;;;;4994405;28;20065;-84
2023/07/22 06:14:49;;;;;;;5.57;3.00;;;21.10;82.20;;;;;;4993898;28;20029;-86
2023/07/22 06:17:15;;;;;;;5.05;3.00;;;20.80;82.10;;;;;;4994060;28;20112;-85
2023/07/22 06:19:40;;;;;;;5.00;3.05;;;21.00;82.30;;;;;;4994526;28;20121;-91
2023/07/22 06:22:06;;;;;;;5.63;3.15;;;21.60;82.60;;;;;;5019666;28;20034;-86
2023/07/22 06:24:31;;;;;;;4.50;2.70;;;20.80;82.30;;;;;;4999991;28;20018;-86
2023/07/22 06:26:57;;;;;;;5.38;3.10;;;20.90;82.20;;;;;;5001124;28;20025;-87
2023/07/22 06:29:23;;;;;;;6.05;3.22;;;20.90;82.30;;;;;;5001048;28;20045;-86
2023/07/22 06:31:48;;;;;;;5.00;3.00;;;20.40;82.00;;;;;;5017948;28;20041;-85
2023/07/22 06:34:14;;;;;;;5.30;3.00;;;20.90;82.30;;;;;;5016891;28;20026;-88
2023/07/22 06:36:39;;;;;;;5.50;2.95;;;20.60;82.10;;;;;;4999421;28;20021;-85
2023/07/22 06:39:05;;;;;;;5.50;3.17;;;20.30;81.90;;;;;;4999326;28;20030;-86
2023/07/22 06:41:30;;;;;;;5.47;3.08;;;20.30;81.80;;;;;;5016860;28;20037;-86
2023/07/22 06:43:56;;;;;;;6.03;3.33;;;20.20;81.70;;;;;;4999922;28;20034;-86
2023/07/22 06:46:21;;;;;;;5.75;3.20;;;21.00;82.20;;;;;;5001332;28;20021;-87
2023/07/22 06:48:47;;;;;;;5.43;3.10;;;20.30;81.70;;;;;;5004338;28;20029;-85
2023/07/22 06:51:13;;;;;;;5.43;3.20;;;20.30;81.70;;;;;;5021705;28;20038;-89
2023/07/22 06:53:38;;;;;;;5.03;2.80;;;20.20;82.20;;;;;;5003202;28;20076;-89
2023/07/22 06:56:04;;;;;;;5.43;3.20;;;20.30;81.70;;;;;;5003811;28;20391;-84
2023/07/22 06:58:30;;;;;;;5.63;2.70;;;20.30;81.50;;;;;;5002041;28;20032;-87
2023/07/22 07:00:55;;;;;;;5.00;2.97;;;21.20;82.10;;;;;;5002682;28;20469;-85
2023/07/22 07:03:22;;;;;;;6.55;3.22;;;21.20;82.10;;;;;;5000642;28;20030;-86
2023/07/22 07:05:55;;;;;;;4.50;2.67;;;20.30;81.50;;;;;;5001664;28;20369;-85
2023/07/22 07:08:21;;;;;;;4.72;2.92;;;21.40;82.20;;;;;;5001024;28;20029;-89
2023/07/22 07:10:47;;;;;;;5.30;3.20;;;20.20;81.40;;;;;;5018562;28;20033;-85
2023/07/22 07:13:13;;;;;;;5.30;2.83;;;20.90;81.70;;;;;;5000793;28;20403;-87
2023/07/22 07:15:38;;;;;;;5.72;3.40;;;21.00;81.80;;;;;;5001365;28;20053;-86
2023/07/22 07:18:05;;;;;;;5.55;3.10;;;21.10;81.80;;;;;;5000385;28;20562;-86
2023/07/22 07:20:30;;;;;;;4.95;2.85;;;21.00;81.80;;;;;;5000787;28;20096;-87
2023/07/22 07:22:56;;;;;;;5.35;3.03;;;21.50;81.90;;;;;;5017748;28;20026;-87
2023/07/22 07:25:21;;;;;;;5.72;3.08;;;20.60;81.30;;;;;;5000384;28;20076;-84
2023/07/22 07:27:47;;;;;;;5.47;2.95;;;21.80;81.80;;;;;;4999306;28;20025;-86
2023/07/22 07:30:13;;;;;;;5.15;3.15;;;20.50;80.90;;;;;;4998903;28;20034;-84
2023/07/22 07:32:38;;;;;;;5.40;3.15;;;20.60;80.80;;;;;;5016278;28;20072;-85
2023/07/22 07:35:04;;;;;;;5.60;3.40;;;20.60;80.70;;;;;;4997579;28;20030;-86
2023/07/22 07:37:32;;;;;;;5.18;2.90;;;20.60;80.70;;;;;;4997612;28;20037;-84
2023/07/22 07:39:59;;;;;;;5.15;2.90;;;20.60;80.70;;;;;;5014970;28;20054;-83
2023/07/22 07:42:28;;;;;;;5.05;3.20;;;20.60;80.60;;;;;;4998021;28;20110;-86
2023/07/22 07:44:54;;;;;;;5.28;3.20;;;20.70;80.60;;;;;;5015500;28;20030;-84
2023/07/22 07:47:20;;;;;;;5.40;3.08;;;20.70;80.70;;;;;;4997473;28;20034;-84
2023/07/22 07:49:46;;;;;;;5.68;3.17;;;20.70;80.70;;;;;;4998005;28;20116;-85
2023/07/22 07:52:11;;;;;;;6.07;3.38;;;20.70;80.70;;;;;;4997307;28;20459;-88
2023/07/22 07:54:36;;;;;;;5.03;3.00;;;20.60;80.70;;;;;;5014621;28;20092;-85
2023/07/22 07:57:02;;;;;;;6.28;3.17;;;20.60;80.80;;;;;;4996526;28;20194;-86
2023/07/22 07:59:28;;;;;;;5.43;2.90;;;20.60;80.90;;;;;;4995383;28;20037;-85
2023/07/22 08:01:53;;;;;;;5.00;3.00;;;20.60;81.00;;;;;;4995901;28;20502;-84
2023/07/22 08:04:19;;;;;;;5.90;3.30;;;20.60;81.10;;;;;;4995765;28;20028;-84
2023/07/22 08:06:45;;;;;;;5.10;2.97;;;20.70;81.20;;;;;;4997062;28;20021;-83
2023/07/22 08:09:10;;;;;;;5.70;3.25;;;20.60;81.20;;;;;;5014416;28;20104;-87
2023/07/22 08:11:38;;;;;;;5.78;3.10;;;20.50;81.00;;;;;;4996527;28;20037;-84
2023/07/22 08:14:05;;;;;;;4.85;3.08;;;21.60;81.70;;;;;;5012974;28;20512;-84
2023/07/22 08:16:30;;;;;;;5.35;3.08;;;21.00;81.30;;;;;;4995561;28;20053;-86
2023/07/22 08:18:56;;;;;;;5.60;3.20;;;20.60;81.20;;;;;;4994962;28;20065;-84
2023/07/22 08:21:21;;;;;;;5.15;3.10;;;20.50;81.20;;;;;;5013271;28;20084;-84
2023/07/22 08:23:47;;;;;;;5.30;2.97;;;20.60;81.30;;;;;;4995559;28;20026;-85
2023/07/22 08:26:13;;;;;;;5.30;3.05;;;20.60;81.30;;;;;;4994910;28;20018;-87
2023/07/22 08:28:38;;;;;;;5.32;3.05;;;20.60;81.30;;;;;;4994323;28;20115;-83
2023/07/22 08:31:05;;;;;;;5.80;3.10;;;20.60;81.20;;;;;;5013707;28;20554;-83
2023/07/22 08:33:31;;;;;;;4.57;3.00;;;20.60;81.30;;;;;;5012374;28;20084;-83
2023/07/22 08:35:56;;;;;;;5.60;3.40;;;20.60;81.20;;;;;;4995672;28;20022;-83
2023/07/22 08:38:22;;;;;;;5.65;3.45;;;20.60;81.20;;;;;;4995203;28;20029;-84
2023/07/22 08:40:51;;;;;;;5.10;2.92;;;20.60;81.20;;;;;;4996194;28;20124;-83
2023/07/22 08:43:20;;;;;;;5.40;3.25;;;20.60;81.20;;;;;;4995496;28;20022;-83
2023/07/22 08:45:47;;;;;;;5.65;3.30;;;20.60;81.20;;;;;;4994741;28;20472;-84
2023/07/22 08:48:18;;;;;;;5.82;3.50;;;20.60;81.20;;;;;;4994103;28;20033;-92
2023/07/22 08:50:51;;;;;;;6.35;3.50;;;20.60;81.20;;;;;;5012361;28;20045;-85
2023/07/22 08:53:19;;;;;;;5.63;3.13;;;20.60;81.20;;;;;;4994458;28;20117;-85
2023/07/22 08:55:45;;;;;;;8.68;3.90;;;20.60;81.20;;;;;;4994804;28;20025;-86
2023/07/22 08:58:12;;;;;;;8.57;4.47;;;20.60;81.30;;;;;;5012311;28;20034;-88
2023/07/22 09:00:39;;;;;;;11.02;4.50;;;20.60;80.90;;;;;;5011757;28;20018;-91
2023/07/22 09:03:05;;;;;;;9.35;3.90;;;20.60;81.30;;;;;;5012132;28;20026;-84
2023/07/22 09:05:34;;;;;;;11.38;4.10;;;20.70;80.70;;;;;;4994059;28;20038;-90
2023/07/22 09:08:06;;;;;;;11.27;4.75;;;20.70;80.60;;;;;;4994174;28;20057;-91
2023/07/22 09:10:31;;;;;;;8.20;3.90;;;20.70;80.40;;;;;;4994016;28;20025;-85
2023/07/22 09:12:58;;;;;;;9.77;4.00;;;20.70;80.30;;;;;;4993733;28;20129;-84
2023/07/22 09:15:24;;;;;;;9.43;4.05;;;20.80;80.30;;;;;;4993665;28;20390;-84
2023/07/22 09:17:50;;;;;;;10.85;3.92;;;20.80;80.30;;;;;;5011347;28;20026;-85
2023/07/22 09:20:16;;;;;;;8.95;4.35;;;20.80;80.30;;;;;;5011031;28;20029;-87
2023/07/22 09:22:50;;;;;;;7.47;3.50;;;20.80;80.30;;;;;;4993607;28;20787;-86
2023/07/22 09:25:21;;;;;;;6.45;3.75;;;20.80;80.30;;;;;;5011043;28;20080;-86
2023/07/22 09:27:48;;;;;;;7.93;3.75;;;20.80;80.40;;;;;;4993853;28;20030;-85
2023/07/22 09:30:20;;;;;;;17.92;4.78;;;20.80;80.70;;;;;;5010729;28;20084;-86
2023/07/22 09:32:46;;;;;;;20.33;4.78;;;20.70;80.90;;;;;;5010511;28;20029;-85
2023/07/22 09:35:11;;;;;;;13.00;4.60;;;20.70;80.90;;;;;;4992120;28;20029;-89
2023/07/22 09:37:38;;;;;;;18.38;5.07;;;20.60;80.80;;;;;;4992773;28;20488;-87
2023/07/22 09:40:23;;;;;;;15.02;4.35;;;20.60;80.80;;;;;;5010162;28;20058;-87
2023/07/22 09:42:56;;;;;;;21.85;5.45;;;20.60;80.90;;;;;;4992894;28;20053;-85
2023/07/22 09:45:24;;;;;;;15.73;4.65;;;20.60;81.00;;;;;;5010278;28;20108;-84
2023/07/22 09:47:51;;;;;;;15.73;5.13;;;20.60;81.10;;;;;;4992606;28;20496;-83
2023/07/22 09:50:19;;;;;;;19.45;5.13;;;20.60;81.30;;;;;;5009801;28;20042;-84
2023/07/22 09:52:53;;;;;;;15.65;4.85;;;20.60;81.30;;;;;;4991715;28;20026;-84
2023/07/22 09:55:21;;;;;;;13.93;5.03;;;20.50;81.30;;;;;;4996210;28;20026;-84
2023/07/22 09:57:54;;;;;;;12.63;4.90;;;20.50;81.40;;;;;;4996288;28;20034;-86
2023/07/22 10:00:20;;;;;;;13.60;5.00;;;20.50;81.50;;;;;;4995151;28;20096;-86
2023/07/22 10:02:51;;;;;;;14.82;5.07;;;20.50;81.50;;;;;;4999829;28;20033;-86
2023/07/22 10:05:18;;;;;;;11.60;4.60;;;20.50;81.50;;;;;;5020350;28;20068;-86
2023/07/22 10:07:47;;;;;;;12.23;4.93;;;20.50;81.50;;;;;;5000169;28;20034;-87
2023/07/22 10:10:15;;;;;;;15.45;4.78;;;20.50;81.50;;;;;;5016650;28;20033;-88
2023/07/22 10:12:42;;;;;;;16.35;4.63;;;20.50;81.40;;;;;;5016286;28;20116;-87
2023/07/22 10:15:14;;;;;;;12.40;4.78;;;20.50;81.30;;;;;;5015510;28;20486;-86
2023/07/22 10:17:42;;;;;;;12.55;4.55;;;20.50;81.20;;;;;;5001648;28;20040;-86
2023/07/22 10:20:14;;;;;;;11.00;4.40;;;20.60;81.20;;;;;;5002731;28;20021;-85
2023/07/22 10:22:47;;;;;;;13.02;4.63;;;20.60;81.10;;;;;;4999843;28;20022;-88
2023/07/22 10:25:15;;;;;;;10.15;4.20;;;20.60;81.00;;;;;;5019052;28;20022;-86
2023/07/22 10:27:41;;;;;;;14.10;4.47;;;20.60;81.00;;;;;;5001269;28;20034;-86
2023/07/22 10:30:15;;;;;;;11.35;4.57;;;20.70;81.00;;;;;;4999880;28;20484;-85
2023/07/22 10:32:43;;;;;;;10.40;4.80;;;20.70;80.80;;;;;;5015234;28;20022;-83
2023/07/22 10:35:17;;;;;;;12.15;4.60;;;20.70;80.90;;;;;;5015406;28;20025;-86
2023/07/22 10:37:45;;;;;;;10.90;4.70;;;20.70;80.80;;;;;;4998296;28;20022;-83
2023/07/22 10:40:29;;;;;;;11.43;4.53;;;20.60;80.70;;;;;;4999446;28;20034;-84
2023/07/22 10:43:02;;;;;;;10.85;4.10;;;20.70;80.70;;;;;;5018302;28;20030;-85
2023/07/22 10:45:33;;;;;;;10.27;4.60;;;20.80;80.70;;;;;;5017358;28;20480;-85
2023/07/22 10:48:08;;;;;;;8.20;4.30;;;20.80;80.60;;;;;;4998668;28;20026;-88
2023/07/22 10:50:48;;;;;;;10.15;4.18;;;20.80;80.60;;;;;;5015202;28;20022;-84
2023/07/22 10:53:26;;;;;;;7.63;4.00;;;20.70;80.60;;;;;;4997273;28;20117;-83
2023/07/22 10:56:11;;;;;;;8.35;4.53;;;20.80;80.70;;;;;;4997398;28;20026;-85
2023/07/22 10:58:46;;;;;;;9.93;3.88;;;20.70;80.60;;;;;;4995982;28;20507;-85
2023/07/22 11:01:30;;;;;;;11.65;4.30;;;20.80;80.70;;;;;;4996841;28;20563;-88
2023/07/22 11:04:30;;;;;;;10.02;4.20;;;20.60;80.60;;;;;;4995969;28;20029;-86
2023/07/22 11:07:04;;;;;;;8.70;4.03;;;20.70;80.80;;;;;;5012750;28;20123;-85
2023/07/22 11:09:30;;;;;;;8.05;3.65;;;20.70;80.80;;;;;;4994321;28;20052;-85
2023/07/22 11:12:17;;;;;;;8.10;3.60;;;20.70;80.90;;;;;;4994584;28;20026;-90
2023/07/22 11:15:01;;;;;;;9.02;4.10;;;20.70;81.00;;;;;;4993328;28;20028;-84
2023/07/22 11:17:31;;;;;;;8.10;3.88;;;20.70;81.10;;;;;;4992815;28;20614;-85
2023/07/22 11:19:58;;;;;;;7.95;3.65;;;20.50;81.10;;;;;;5012110;28;20029;-83
2023/07/22 11:22:23;;;;;;;7.95;3.90;;;20.60;81.30;;;;;;5013031;28;20029;-85
2023/07/22 11:24:49;;;;;;;10.77;3.88;;;20.60;81.30;;;;;;4993443;28;20030;-85
2023/07/22 11:27:15;;;;;;;9.55;3.92;;;20.60;81.20;;;;;;4993688;28;20033;-85
2023/07/22 11:29:41;;;;;;;10.73;3.60;;;20.60;81.20;;;;;;5011119;28;20034;-84
2023/07/22 11:32:15;;;;;;;11.02;4.03;;;20.60;81.20;;;;;;4993473;28;20025;-86
2023/07/22 11:34:40;;;;;;;11.63;4.90;;;20.60;81.00;;;;;;4995190;28;20038;-88
2023/07/22 11:37:06;;;;;;;10.30;4.05;;;20.60;80.90;;;;;;5014745;28;20033;-87
2023/07/22 11:39:32;;;;;;;10.75;4.28;;;20.60;80.90;;;;;;4996702;28;20037;-85
2023/07/22 11:42:01;;;;;;;10.27;4.13;;;20.60;80.90;;;;;;4996694;28;20798;-86
2023/07/22 11:44:28;;;;;;;12.23;4.82;;;20.60;80.80;;;;;;4996473;28;20022;-84
2023/07/22 11:46:58;;;;;;;13.20;4.13;;;20.60;80.90;;;;;;4995945;28;20022;-86
2023/07/22 11:49:26;;;;;;;10.88;4.15;;;20.60;81.00;;;;;;4995666;28;20022;-85
2023/07/22 11:52:07;;;;;;;9.68;4.05;;;20.60;80.90;;;;;;5014063;28;20026;-86
2023/07/22 11:54:33;;;;;;;13.82;3.90;;;20.60;81.00;;;;;;5013083;28;20085;-84
2023/07/22 11:57:17;;;;;;;8.15;4.20;;;20.60;81.00;;;;;;4996220;28;20393;-83
2023/07/22 11:59:47;;;;;;;11.45;4.47;;;20.70;81.20;;;;;;5013220;28;20069;-84
2023/07/22 12:02:19;;;;;;;9.55;4.30;;;20.60;81.10;;;;;;4995280;28;20116;-85
2023/07/22 12:04:52;;;;;;;9.30;4.03;;;20.60;81.20;;;;;;5013146;28;20063;-84
2023/07/22 12:07:25;;;;;;;9.07;3.67;;;20.70;81.20;;;;;;4995338;28;20025;-86
2023/07/22 12:09:52;;;;;;;9.30;3.80;;;20.60;81.10;;;;;;5013089;28;20095;-88
2023/07/22 12:12:18;;;;;;;9.70;4.03;;;20.60;81.10;;;;;;4994981;28;20558;-84
2023/07/22 12:14:43;;;;;;;8.10;4.00;;;20.60;81.10;;;;;;4994239;28;20026;-84
2023/07/22 12:17:09;;;;;;;10.93;4.15;;;20.60;81.00;;;;;;4994745;28;20088;-85
2023/07/22 12:19:35;;;;;;;9.48;3.88;;;20.70;80.90;;;;;;4994875;28;20084;-84
2023/07/22 12:22:01;;;;;;;8.75;4.10;;;20.70;80.80;;;;;;4994655;28;20121;-84
2023/07/22 12:24:28;;;;;;;7.32;3.80;;;20.70;80.60;;;;;;4994098;28;20025;-84
2023/07/22 12:26:54;;;;;;;7.50;3.75;;;20.80;80.70;;;;;;4994103;28;20029;-84
2023/07/22 12:29:19;;;;;;;7.18;3.58;;;20.80;80.60;;;;;;4994749;28;20087;-85
2023/07/22 12:31:45;;;;;;;7.95;3.45;;;20.80;80.50;;;;;;4993941;28;20025;-84
2023/07/22 12:34:11;;;;;;;7.28;3.42;;;20.80;80.40;;;;;;4993667;28;20041;-85
2023/07/22 12:36:36;;;;;;;8.90;4.13;;;20.90;80.50;;;;;;4993905;28;20040;-83
2023/07/22 12:39:02;;;;;;;8.63;3.97;;;20.80;80.40;;;;;;4993456;28;20495;-84
2023/07/22 12:41:28;;;;;;;8.82;3.83;;;20.80;80.40;;;;;;4993238;28;20033;-83
2023/07/22 12:43:53;;;;;;;6.28;3.58;;;20.80;80.40;;;;;;5011470;28;20380;-84
2023/07/22 12:46:19;;;;;;;7.72;3.70;;;20.80;80.60;;;;;;4992952;28;20164;-88
2023/07/22 12:48:44;;;;;;;8.13;3.85;;;20.80;81.20;;;;;;4993274;28;20045;-84
2023/07/22 12:51:10;;;;;;;7.25;4.00;;;20.80;80.80;;;;;;4993465;28;20022;-85
2023/07/22 12:53:36;;;;;;;8.98;3.60;;;20.70;80.90;;;;;;4993024;28;20048;-84
2023/07/22 12:56:05;;;;;;;7.00;3.25;;;20.70;81.00;;;;;;4992696;28;20401;-84
2023/07/22 12:58:31;;;;;;;8.02;3.63;;;20.70;81.10;;;;;;4992888;28;20036;-84
2023/07/22 13:00:57;;;;;;;7.03;3.80;;;20.70;81.10;;;;;;5010502;28;20418;-83
2023/07/22 13:03:22;;;;;;;6.10;3.53;;;20.60;81.20;;;;;;5010854;28;20132;-83
2023/07/22 13:05:48;;;;;;;7.25;3.53;;;20.60;81.20;;;;;;4992933;28;20021;-83
2023/07/22 13:08:13;;;;;;;9.48;4.38;;;20.70;81.30;;;;;;5010617;28;20022;-84
2023/07/22 13:10:43;;;;;;;6.80;3.25;;;20.60;81.30;;;;;;4992783;28;20383;-84
2023/07/22 13:13:09;;;;;;;6.97;3.40;;;20.60;81.40;;;;;;4992503;28;20026;-84
2023/07/22 13:15:34;;;;;;;6.78;3.83;;;20.60;81.50;;;;;;4993810;28;20026;-80
2023/07/22 13:18:00;;;;;;;9.07;3.90;;;20.60;81.50;;;;;;4993720;28;20084;-84
2023/07/22 13:20:25;;;;;;;6.00;3.40;;;20.60;81.50;;;;;;4992396;28;20064;-83
2023/07/22 13:22:51;;;;;;;6.88;3.53;;;20.60;81.50;;;;;;4992440;28;20037;-85
2023/07/22 13:25:16;;;;;;;5.88;3.10;;;20.60;81.40;;;;;;4992193;28;20318;-84
2023/07/22 13:27:42;;;;;;;6.93;3.47;;;20.60;81.50;;;;;;4995600;28;20080;-88
2023/07/22 13:30:08;;;;;;;6.55;3.40;;;20.60;81.40;;;;;;5000779;28;20904;-87
2023/07/22 13:32:33;;;;;;;6.82;3.20;;;20.60;81.40;;;;;;5000497;28;20053;-88
2023/07/22 13:34:59;;;;;;;6.57;3.30;;;20.60;81.40;;;;;;5018661;28;20038;-89
2023/07/22 13:37:25;;;;;;;7.88;3.78;;;20.60;81.30;;;;;;5001693;28;20030;-87
2023/07/22 13:39:50;;;;;;;7.13;3.85;;;20.60;81.30;;;;;;5018936;28;20504;-84